createdAt,value
2018-07-14T00:01:01.972Z,16.27
2018-07-14T00:03:31.136Z,16.24
2018-07-14T00:06:00.012Z,16.16
2018-07-14T00:08:28.828Z,16.16
2018-07-14T00:10:58.105Z,16.15
2018-07-14T00:13:27.217Z,16.14
2018-07-14T00:15:56.348Z,16.10
2018-07-14T00:18:25.435Z,16.07
2018-07-14T00:20:54.332Z,15.97
2018-07-14T00:23:23.418Z,15.96
2018-07-14T00:25:57.366Z,15.92
2018-07-14T00:28:26.116Z,15.89
2018-07-14T00:30:54.865Z,15.89
2018-07-14T00:33:24.372Z,15.88
2018-07-14T00:35:53.207Z,15.84
2018-07-14T00:38:22.433Z,15.84
2018-07-14T00:40:51.459Z,15.85
2018-07-14T00:43:20.617Z,15.85
2018-07-14T00:45:49.984Z,15.81
2018-07-14T00:48:18.977Z,15.76
2018-07-14T00:50:47.798Z,15.66
2018-07-14T00:53:16.608Z,15.43
2018-07-14T00:55:45.713Z,15.39
2018-07-14T00:58:14.818Z,15.41
2018-07-14T01:00:44.260Z,15.34
2018-07-14T01:03:13.319Z,15.27
2018-07-14T01:05:42.481Z,15.26
2018-07-14T01:08:11.215Z,15.26
2018-07-14T01:10:40.198Z,15.25
2018-07-14T01:13:09.025Z,15.24
2018-07-14T01:15:38.099Z,15.21
2018-07-14T01:18:07.696Z,15.19
2018-07-14T01:20:36.447Z,15.15
2018-07-14T01:23:05.595Z,15.11
2018-07-14T01:25:34.692Z,15.08
2018-07-14T01:28:03.827Z,15.06
2018-07-14T01:30:32.697Z,15.03
2018-07-14T01:33:01.766Z,14.99
2018-07-14T01:35:30.498Z,14.97
2018-07-14T01:37:59.611Z,14.91
2018-07-14T01:40:28.684Z,14.86
2018-07-14T01:42:57.767Z,14.83
2018-07-14T01:45:27.365Z,14.77
2018-07-14T01:47:56.461Z,14.69
2018-07-14T01:50:25.203Z,14.64
2018-07-14T01:52:54.642Z,14.61
2018-07-14T01:55:23.825Z,14.59
2018-07-14T02:00:20.292Z,14.49
2018-07-14T02:02:49.111Z,14.47
2018-07-14T02:05:18.407Z,14.44
2018-07-14T02:07:47.171Z,14.42
2018-07-14T02:10:16.660Z,14.41
2018-07-14T02:12:45.508Z,14.38
2018-07-14T02:15:14.393Z,14.37
2018-07-14T02:17:43.305Z,14.36
2018-07-14T02:20:12.216Z,14.34
2018-07-14T02:22:40.987Z,14.32
2018-07-14T02:25:09.799Z,14.28
2018-07-14T02:27:39.426Z,14.25
2018-07-14T02:30:08.347Z,14.21
2018-07-14T02:32:37.854Z,14.22
2018-07-14T02:35:06.947Z,14.21
2018-07-14T02:37:36.324Z,14.22
2018-07-14T02:40:05.334Z,14.21
2018-07-14T02:42:34.474Z,14.20
2018-07-14T02:45:03.461Z,14.20
2018-07-14T02:47:32.324Z,14.22
2018-07-14T02:50:01.124Z,14.20
2018-07-14T02:52:29.903Z,14.19
2018-07-14T02:54:59.095Z,14.15
2018-07-14T02:57:28.321Z,14.12
2018-07-14T02:59:57.386Z,14.09
2018-07-14T03:02:26.767Z,14.08
2018-07-14T03:04:55.607Z,14.04
2018-07-14T03:07:24.797Z,13.98
2018-07-14T03:09:53.860Z,13.94
2018-07-14T03:12:22.995Z,13.85
2018-07-14T03:14:51.727Z,13.81
2018-07-14T03:17:20.619Z,13.81
2018-07-14T03:19:50.217Z,13.81
2018-07-14T03:22:19.490Z,13.79
2018-07-14T03:24:48.355Z,13.77
2018-07-14T03:27:17.224Z,13.76
2018-07-14T03:29:46.102Z,13.73
2018-07-14T03:32:15.666Z,13.70
2018-07-14T03:34:45.221Z,13.66
2018-07-14T03:37:14.314Z,13.51
2018-07-14T03:39:43.435Z,13.44
2018-07-14T03:42:12.897Z,13.39
2018-07-14T03:44:41.631Z,13.24
2018-07-14T03:47:10.410Z,13.23
2018-07-14T03:49:39.437Z,13.26
2018-07-14T03:52:08.169Z,13.24
2018-07-14T03:54:37.785Z,13.21
2018-07-14T03:57:06.751Z,13.22
2018-07-14T03:59:35.992Z,13.28
2018-07-14T04:02:05.125Z,13.33
2018-07-14T04:04:34.169Z,13.39
2018-07-14T04:07:03.503Z,13.38
2018-07-14T04:09:32.277Z,13.34
2018-07-14T04:12:01.596Z,13.32
2018-07-14T04:14:30.419Z,13.34
2018-07-14T04:16:59.443Z,13.39
2018-07-14T04:19:28.206Z,13.44
2018-07-14T04:21:57.259Z,13.51
2018-07-14T04:24:26.036Z,13.60
2018-07-14T04:26:55.162Z,13.67
2018-07-14T04:29:24.221Z,13.73
2018-07-14T04:31:53.640Z,13.68
2018-07-14T04:34:22.754Z,13.52
2018-07-14T04:36:51.503Z,13.56
2018-07-14T04:39:21.219Z,13.60
2018-07-14T04:41:50.027Z,13.58
2018-07-14T04:44:19.130Z,13.54
2018-07-14T04:46:48.253Z,13.57
2018-07-14T04:49:17.692Z,13.68
2018-07-14T04:51:46.596Z,13.69
2018-07-14T04:54:15.733Z,13.68
2018-07-14T04:56:44.785Z,13.74
2018-07-14T04:59:13.614Z,13.80
2018-07-14T05:01:42.920Z,13.86
2018-07-14T05:04:12.068Z,13.86
2018-07-14T05:06:41.200Z,13.90
2018-07-14T05:09:10.272Z,14.00
2018-07-14T05:11:39.438Z,14.13
2018-07-14T05:14:08.251Z,14.26
2018-07-14T05:16:37.090Z,14.34
2018-07-14T05:19:06.422Z,14.45
2018-07-14T05:21:35.196Z,14.56
2018-07-14T05:24:04.051Z,14.66
2018-07-14T05:26:33.343Z,14.77
2018-07-14T05:29:02.161Z,14.85
2018-07-14T05:31:31.440Z,14.93
2018-07-14T05:34:00.869Z,15.01
2018-07-14T05:36:29.953Z,15.06
2018-07-14T05:38:59.134Z,15.14
2018-07-14T05:41:27.918Z,15.21
2018-07-14T05:43:56.805Z,15.29
2018-07-14T05:46:25.582Z,15.36
2018-07-14T05:48:54.675Z,15.42
2018-07-14T05:51:23.534Z,15.49
2018-07-14T05:53:52.348Z,15.59
2018-07-14T05:56:22.070Z,15.68
2018-07-14T05:58:51.220Z,15.76
2018-07-14T06:01:19.990Z,15.85
2018-07-14T06:03:48.775Z,15.92
2018-07-14T06:06:17.586Z,16.02
2018-07-14T06:08:46.637Z,16.09
2018-07-14T06:11:15.477Z,16.18
2018-07-14T06:13:44.623Z,16.26
2018-07-14T06:16:13.355Z,16.32
2018-07-14T06:18:42.224Z,16.39
2018-07-14T06:21:12.011Z,16.46
2018-07-14T06:23:41.442Z,16.49
2018-07-14T06:26:10.365Z,16.54
2018-07-14T06:28:39.518Z,16.63
2018-07-14T06:31:08.609Z,16.67
2018-07-14T06:33:37.747Z,16.75
2018-07-14T06:36:06.808Z,16.86
2018-07-14T06:38:35.659Z,16.93
2018-07-14T06:41:05.061Z,17.05
2018-07-14T06:43:34.156Z,17.13
2018-07-14T06:46:03.178Z,17.21
2018-07-14T06:48:32.001Z,17.29
2018-07-14T06:51:01.242Z,17.39
2018-07-14T06:53:30.688Z,17.50
2018-07-14T06:56:00.014Z,17.60
2018-07-14T06:58:28.789Z,17.69
2018-07-14T07:00:58.222Z,17.82
2018-07-14T07:03:27.085Z,17.94
2018-07-14T07:05:56.167Z,18.09
2018-07-14T07:08:25.047Z,18.17
2018-07-14T07:10:54.484Z,18.21
2018-07-14T07:13:23.538Z,18.31
2018-07-14T07:15:52.618Z,18.39
2018-07-14T07:18:21.396Z,18.48
2018-07-14T07:20:50.461Z,18.58
2018-07-14T07:23:19.560Z,18.67
2018-07-14T07:25:48.703Z,18.70
2018-07-14T07:28:18.118Z,18.73
2018-07-14T07:30:47.512Z,18.80
2018-07-14T07:33:17.045Z,18.86
2018-07-14T07:35:46.113Z,18.92
2018-07-14T07:38:14.914Z,19.03
2018-07-14T07:40:44.026Z,19.11
2018-07-14T07:43:13.466Z,19.12
2018-07-14T07:45:42.245Z,19.17
2018-07-14T07:48:11.140Z,19.34
2018-07-14T07:50:40.211Z,19.47
2018-07-14T07:53:09.026Z,19.63
2018-07-14T07:55:38.045Z,19.64
2018-07-14T07:58:07.106Z,19.63
2018-07-14T08:00:35.909Z,19.61
2018-07-14T08:03:04.929Z,19.72
2018-07-14T08:05:34.973Z,19.86
2018-07-14T08:08:03.788Z,19.96
2018-07-14T08:10:32.807Z,20.07
2018-07-14T08:13:01.825Z,20.12
2018-07-14T08:15:30.546Z,20.15
2018-07-14T08:17:59.558Z,20.11
2018-07-14T08:20:28.605Z,20.09
2018-07-14T08:22:57.805Z,20.13
2018-07-14T08:25:26.902Z,20.16
2018-07-14T08:27:56.306Z,20.20
2018-07-14T08:30:25.487Z,20.20
2018-07-14T08:32:54.247Z,20.10
2018-07-14T08:35:23.039Z,20.10
2018-07-14T08:37:52.121Z,20.15
2018-07-14T08:40:20.891Z,20.20
2018-07-14T08:42:49.652Z,20.29
2018-07-14T08:45:18.447Z,20.38
2018-07-14T08:47:47.347Z,20.37
2018-07-14T08:50:16.424Z,20.29
2018-07-14T08:52:45.142Z,20.30
2018-07-14T08:55:13.904Z,20.36
2018-07-14T08:57:43.278Z,20.46
2018-07-14T09:00:13.228Z,20.49
2018-07-14T09:02:42.284Z,20.51
2018-07-14T09:05:11.000Z,20.52
2018-07-14T09:07:39.845Z,20.51
2018-07-14T09:10:09.110Z,20.55
2018-07-14T09:12:38.546Z,20.57
2018-07-14T09:15:07.997Z,20.59
2018-07-14T09:17:37.037Z,20.67
2018-07-14T09:20:06.249Z,20.70
2018-07-14T09:22:35.643Z,20.77
2018-07-14T09:25:04.522Z,20.86
2018-07-14T09:27:33.630Z,20.92
2018-07-14T09:30:02.524Z,21.05
2018-07-14T09:32:31.718Z,21.06
2018-07-14T09:35:00.830Z,21.11
2018-07-14T09:37:30.249Z,21.18
2018-07-14T09:39:59.282Z,21.13
2018-07-14T09:42:28.058Z,21.20
2018-07-14T09:44:57.134Z,21.26
2018-07-14T09:47:25.915Z,21.35
2018-07-14T09:49:55.137Z,21.42
2018-07-14T09:52:24.265Z,21.61
2018-07-14T09:54:53.099Z,21.93
2018-07-14T09:57:22.115Z,22.26
2018-07-14T09:59:50.874Z,22.51
2018-07-14T10:02:19.659Z,22.57
2018-07-14T10:04:49.338Z,22.48
2018-07-14T10:07:18.660Z,22.36
2018-07-14T10:09:47.938Z,22.29
2018-07-14T10:12:16.987Z,22.27
2018-07-14T10:14:46.079Z,22.29
2018-07-14T10:17:15.218Z,22.41
2018-07-14T10:19:44.206Z,22.52
2018-07-14T10:22:13.455Z,22.64
2018-07-14T10:24:42.203Z,22.78
2018-07-14T10:27:11.613Z,23.05
2018-07-14T10:29:40.398Z,23.31
2018-07-14T10:32:09.759Z,23.34
2018-07-14T10:34:38.789Z,23.44
2018-07-14T10:37:07.928Z,23.82
2018-07-14T10:39:37.258Z,24.00
2018-07-14T10:42:06.405Z,23.92
2018-07-14T10:44:35.924Z,23.71
2018-07-14T10:47:05.279Z,23.58
2018-07-14T10:49:34.692Z,23.54
2018-07-14T10:52:03.588Z,23.56
2018-07-14T10:54:33.032Z,23.87
2018-07-14T10:57:02.127Z,24.25
2018-07-14T10:59:31.199Z,24.58
2018-07-14T11:02:00.329Z,24.82
2018-07-14T11:04:29.524Z,24.91
2018-07-14T11:06:58.372Z,25.07
2018-07-14T11:09:27.390Z,24.96
2018-07-14T11:11:56.405Z,24.88
2018-07-14T11:14:28.604Z,24.78
2018-07-14T11:16:58.060Z,24.69
2018-07-14T11:19:28.024Z,24.76
2018-07-14T11:21:57.796Z,25.12
2018-07-14T11:24:27.351Z,25.47
2018-07-14T11:26:56.196Z,25.83
2018-07-14T11:29:25.641Z,26.05
2018-07-14T11:31:54.458Z,26.32
2018-07-14T11:34:23.467Z,26.36
2018-07-14T11:36:52.663Z,26.53
2018-07-14T11:39:21.894Z,26.76
2018-07-14T11:41:51.284Z,26.68
2018-07-14T11:44:20.336Z,26.77
2018-07-14T11:46:49.372Z,26.77
2018-07-14T11:49:18.215Z,26.65
2018-07-14T11:51:47.528Z,26.46
2018-07-14T11:54:16.317Z,26.19
2018-07-14T11:56:45.446Z,26.24
2018-07-14T11:59:14.236Z,26.42
2018-07-14T12:01:43.290Z,26.67
2018-07-14T12:04:12.315Z,26.77
2018-07-14T12:06:41.965Z,26.97
2018-07-14T12:09:10.780Z,27.21
2018-07-14T12:11:39.911Z,27.17
2018-07-14T12:14:08.734Z,27.24
2018-07-14T12:16:37.913Z,27.35
2018-07-14T12:19:07.062Z,27.80
2018-07-14T12:21:35.897Z,27.72
2018-07-14T12:26:46.497Z,27.21
2018-07-14T12:29:15.908Z,26.79
2018-07-14T12:31:44.703Z,26.84
2018-07-14T12:34:14.033Z,27.06
2018-07-14T12:36:42.810Z,27.29
2018-07-14T12:39:11.579Z,27.82
2018-07-14T12:41:40.435Z,28.05
2018-07-14T12:44:09.354Z,28.29
2018-07-14T12:46:38.526Z,28.46
2018-07-14T12:49:07.374Z,28.51
2018-07-14T12:51:36.263Z,28.46
2018-07-14T12:54:05.334Z,28.62
2018-07-14T12:56:34.245Z,28.85
2018-07-14T12:59:03.421Z,28.88
2018-07-14T13:01:33.261Z,29.14
2018-07-14T13:04:02.131Z,29.25
2018-07-14T13:06:31.113Z,29.39
2018-07-14T13:09:00.177Z,29.44
2018-07-14T13:11:29.307Z,29.50
2018-07-14T13:13:58.245Z,29.17
2018-07-14T13:16:27.667Z,29.12
2018-07-14T13:18:56.516Z,29.41
2018-07-14T13:21:25.580Z,29.45
2018-07-14T13:23:54.690Z,29.27
2018-07-14T13:26:23.469Z,29.00
2018-07-14T13:28:53.040Z,28.91
2018-07-14T13:31:22.288Z,29.01
2018-07-14T13:33:51.821Z,29.31
2018-07-14T13:36:21.144Z,29.81
2018-07-14T13:38:51.736Z,30.13
2018-07-14T13:41:19.515Z,29.97
2018-07-14T13:43:48.725Z,29.97
2018-07-14T13:46:18.245Z,30.17
2018-07-14T13:48:47.601Z,30.23
2018-07-14T13:51:16.999Z,29.90
2018-07-14T13:53:46.244Z,29.89
2018-07-14T13:56:15.382Z,30.02
2018-07-14T13:58:44.250Z,30.35
2018-07-14T14:01:14.093Z,30.64
2018-07-14T14:03:43.034Z,31.04
2018-07-14T14:06:11.898Z,31.21
2018-07-14T14:08:41.491Z,31.29
2018-07-14T14:11:10.443Z,31.22
2018-07-14T14:13:39.627Z,31.42
2018-07-14T14:16:08.668Z,31.56
2018-07-14T14:18:37.688Z,31.20
2018-07-14T14:21:06.895Z,30.87
2018-07-14T14:23:35.787Z,30.53
2018-07-14T14:26:04.956Z,30.33
2018-07-14T14:28:33.757Z,30.34
2018-07-14T14:31:02.653Z,30.17
2018-07-14T14:33:32.231Z,30.00
2018-07-14T14:36:01.105Z,29.90
2018-07-14T14:38:30.315Z,29.74
2018-07-14T14:41:02.889Z,29.98
2018-07-14T14:43:32.105Z,30.15
2018-07-14T14:46:02.556Z,30.14
2018-07-14T14:48:31.901Z,30.08
2018-07-14T14:51:00.960Z,29.85
2018-07-14T14:53:30.368Z,29.78
2018-07-14T14:56:00.340Z,29.88
2018-07-14T14:58:29.158Z,30.17
2018-07-14T15:00:59.337Z,30.11
2018-07-14T15:03:29.514Z,30.20
2018-07-14T15:05:59.172Z,30.26
2018-07-14T15:08:28.057Z,30.27
2018-07-14T15:10:57.728Z,30.23
2018-07-14T15:13:53.313Z,30.29
2018-07-14T15:16:22.189Z,30.09
2018-07-14T15:18:51.446Z,30.18
2018-07-14T15:21:20.646Z,30.17
2018-07-14T15:23:50.147Z,30.10
2018-07-14T15:26:19.130Z,30.10
2018-07-14T15:28:48.246Z,30.06
2018-07-14T15:31:17.066Z,30.10
2018-07-14T15:33:46.469Z,30.21
2018-07-14T15:36:16.940Z,30.05
2018-07-14T15:38:45.771Z,30.07
2018-07-14T15:41:14.538Z,29.98
2018-07-14T15:43:44.076Z,29.94
2018-07-14T15:46:13.147Z,29.75
2018-07-14T15:48:41.994Z,29.71
2018-07-14T15:51:10.853Z,29.58
2018-07-14T15:53:40.047Z,29.43
2018-07-14T15:56:09.138Z,29.54
2018-07-14T15:58:38.027Z,29.53
2018-07-14T16:01:07.159Z,29.50
2018-07-14T16:03:36.307Z,29.66
2018-07-14T16:06:05.528Z,29.62
2018-07-14T16:08:34.673Z,29.25
2018-07-14T16:11:03.478Z,29.22
2018-07-14T16:13:32.412Z,29.23
2018-07-14T16:16:01.255Z,29.28
2018-07-14T16:18:30.492Z,29.36
2018-07-14T16:20:59.621Z,29.27
2018-07-14T16:23:28.791Z,29.32
2018-07-14T16:25:58.068Z,29.25
2018-07-14T16:28:26.970Z,29.10
2018-07-14T16:30:55.850Z,28.82
2018-07-14T16:33:24.855Z,28.77
2018-07-14T16:35:53.891Z,28.51
2018-07-14T16:38:22.984Z,28.13
2018-07-14T16:40:51.889Z,28.04
2018-07-14T16:43:21.821Z,27.92
2018-07-14T16:45:50.722Z,27.91
2018-07-14T16:48:19.589Z,27.81
2018-07-14T16:50:48.506Z,27.90
2018-07-14T16:53:17.504Z,27.91
2018-07-14T16:55:46.586Z,27.98
2018-07-14T16:58:15.834Z,27.93
2018-07-14T17:00:44.676Z,27.87
2018-07-14T17:03:14.228Z,27.83
2018-07-14T17:05:43.279Z,27.97
2018-07-14T17:08:12.191Z,27.88
2018-07-14T17:10:41.971Z,27.64
2018-07-14T17:13:11.061Z,27.46
2018-07-14T17:15:40.291Z,27.44
2018-07-14T17:18:10.217Z,27.47
2018-07-14T17:20:39.388Z,27.38
2018-07-14T17:23:08.484Z,27.19
2018-07-14T17:25:37.592Z,27.04
2018-07-14T17:28:07.171Z,26.82
2018-07-14T17:30:36.347Z,26.64
2018-07-14T17:33:06.414Z,26.41
2018-07-14T17:35:35.535Z,26.19
2018-07-14T17:38:04.702Z,26.06
2018-07-14T17:40:33.535Z,25.97
2018-07-14T17:43:02.722Z,25.82
2018-07-14T17:45:31.604Z,25.60
2018-07-14T17:48:00.809Z,25.45
2018-07-14T17:50:29.706Z,25.44
2018-07-14T17:53:00.095Z,25.42
2018-07-14T17:55:29.220Z,25.39
2018-07-14T17:57:58.334Z,25.25
2018-07-14T18:00:28.506Z,25.05
2018-07-14T18:02:57.670Z,24.93
2018-07-14T18:05:26.612Z,24.81
2018-07-14T18:07:57.346Z,24.61
2018-07-14T18:10:26.534Z,24.52
2018-07-14T18:12:55.517Z,24.34
2018-07-14T18:15:24.347Z,24.25
2018-07-14T18:17:53.689Z,23.94
2018-07-14T18:20:22.831Z,23.78
2018-07-14T18:22:57.662Z,23.66
2018-07-14T18:25:26.891Z,23.56
2018-07-14T18:27:56.301Z,23.54
2018-07-14T18:30:25.495Z,23.49
2018-07-14T18:32:54.749Z,23.33
2018-07-14T18:35:24.219Z,23.27
2018-07-14T18:37:54.027Z,23.20
2018-07-14T18:40:23.497Z,23.10
2018-07-14T18:42:52.336Z,22.96
2018-07-14T18:45:21.564Z,22.74
2018-07-14T18:47:50.685Z,22.60
2018-07-14T18:50:19.794Z,22.49
2018-07-14T18:52:49.252Z,22.32
2018-07-14T18:55:18.446Z,22.20
2018-07-14T18:57:47.240Z,22.08
2018-07-14T19:00:16.347Z,22.01
2018-07-14T19:02:45.775Z,21.97
2018-07-14T19:05:23.702Z,21.98
2018-07-14T19:07:53.151Z,21.99
2018-07-14T19:10:22.783Z,21.95
2018-07-14T19:12:51.970Z,21.81
2018-07-14T19:15:25.983Z,21.73
2018-07-14T19:17:55.169Z,21.62
2018-07-14T19:20:24.943Z,21.53
2018-07-14T19:22:54.124Z,21.39
2018-07-14T19:25:23.038Z,21.32
2018-07-14T19:27:52.093Z,21.23
2018-07-14T19:30:21.387Z,21.18
2018-07-14T19:32:50.527Z,21.07
2018-07-14T19:35:19.350Z,20.97
2018-07-14T19:37:48.308Z,20.91
2018-07-14T19:40:17.616Z,20.82
2018-07-14T19:42:46.484Z,20.71
2018-07-14T19:45:15.415Z,20.60
2018-07-14T19:47:44.624Z,20.52
2018-07-14T19:50:14.065Z,20.45
2018-07-14T19:52:42.879Z,20.35
2018-07-14T19:55:12.603Z,20.29
2018-07-14T19:57:42.034Z,20.19
2018-07-14T20:00:11.126Z,20.11
2018-07-14T20:02:39.861Z,20.00
2018-07-14T20:05:08.918Z,19.91
2018-07-14T20:07:37.789Z,19.83
2018-07-14T20:10:06.862Z,19.76
2018-07-14T20:12:36.001Z,19.76
2018-07-14T20:15:04.814Z,19.74
2018-07-14T20:17:33.654Z,19.66
2018-07-14T20:20:02.796Z,19.65
2018-07-14T20:22:31.786Z,19.60
2018-07-14T20:25:00.589Z,19.58
2018-07-14T20:27:29.387Z,19.52
2018-07-14T20:29:59.144Z,19.52
2018-07-14T20:32:28.126Z,19.49
2018-07-14T20:34:57.295Z,19.39
2018-07-14T20:37:26.056Z,19.29
2018-07-14T20:39:54.851Z,19.25
2018-07-14T20:42:23.982Z,19.19
2018-07-14T20:44:52.747Z,19.20
2018-07-14T20:47:21.554Z,19.16
2018-07-14T20:49:50.314Z,19.13
2018-07-14T20:52:19.807Z,19.10
2018-07-14T20:54:48.883Z,19.06
2018-07-14T20:57:18.036Z,19.06
2018-07-14T20:59:47.238Z,19.01
2018-07-14T21:02:16.303Z,18.98
2018-07-14T21:04:45.719Z,18.92
2018-07-14T21:07:15.044Z,18.86
2018-07-14T21:09:44.207Z,18.83
2018-07-14T21:12:13.603Z,18.78
2018-07-14T21:14:43.324Z,18.75
2018-07-14T21:17:12.407Z,18.71
2018-07-14T21:19:41.745Z,18.66
2018-07-14T21:22:10.587Z,18.58
2018-07-14T21:24:40.660Z,18.45
2018-07-14T21:27:09.502Z,18.37
2018-07-14T21:29:39.042Z,18.27
2018-07-14T21:32:09.142Z,18.16
2018-07-14T21:34:38.359Z,18.09
2018-07-14T21:37:07.141Z,18.04
2018-07-14T21:39:35.975Z,17.98
2018-07-14T21:42:05.129Z,17.95
2018-07-14T21:44:33.983Z,17.88
2018-07-14T21:47:03.185Z,17.79
2018-07-14T21:49:32.703Z,17.76
2018-07-14T21:52:01.528Z,17.62
2018-07-14T21:54:30.776Z,17.54
2018-07-14T21:56:59.566Z,17.51
2018-07-14T21:59:28.561Z,17.54
2018-07-14T22:01:58.161Z,17.47
2018-07-14T22:04:27.241Z,17.38
2018-07-14T22:06:56.064Z,17.24
2018-07-14T22:09:26.533Z,17.17
2018-07-14T22:11:56.551Z,17.12
2018-07-14T22:14:26.467Z,17.13
2018-07-14T22:16:56.532Z,17.13
2018-07-14T22:19:26.357Z,17.15
2018-07-14T22:21:56.631Z,17.12
2018-07-14T22:24:26.003Z,17.10
2018-07-14T22:26:55.143Z,17.12
2018-07-14T22:29:24.601Z,17.10
2018-07-14T22:31:53.601Z,17.08
2018-07-14T22:34:23.512Z,17.05
2018-07-14T22:36:53.082Z,16.98
2018-07-14T22:39:22.181Z,16.91
2018-07-14T22:41:51.059Z,16.88
2018-07-14T22:44:20.781Z,16.85
2018-07-14T22:46:49.676Z,16.76
2018-07-14T22:49:18.865Z,16.74
2018-07-14T22:51:48.054Z,16.76
2018-07-14T22:54:17.265Z,16.76
2018-07-14T22:56:46.085Z,16.75
2018-07-14T22:59:15.854Z,16.73
2018-07-14T23:01:44.658Z,16.73
2018-07-14T23:04:13.560Z,16.70
2018-07-14T23:06:42.887Z,16.68
2018-07-14T23:09:12.059Z,16.64
2018-07-14T23:11:41.158Z,16.59
2018-07-14T23:14:10.226Z,16.60
2018-07-14T23:16:40.020Z,16.58
2018-07-14T23:19:08.931Z,16.57
2018-07-14T23:21:38.489Z,16.57
2018-07-14T23:24:08.347Z,16.54
2018-07-14T23:26:37.479Z,16.52
2018-07-14T23:29:06.372Z,16.49
2018-07-14T23:31:35.403Z,16.47
2018-07-14T23:34:04.209Z,16.44
2018-07-14T23:36:33.665Z,16.43
2018-07-14T23:39:02.863Z,16.39
2018-07-14T23:41:32.265Z,16.37
2018-07-14T23:44:01.032Z,16.34
2018-07-14T23:46:29.969Z,16.32
2018-07-14T23:48:59.581Z,16.29
2018-07-14T23:51:28.576Z,16.26
2018-07-14T23:53:57.889Z,16.23
2018-07-14T23:56:26.807Z,16.20
2018-07-14T23:58:55.988Z,16.16
